Terminal Aerodrome Forecast
Issued by NWS North Platte, NE

Home | Current Version | Previous Version | Text Only | Print | Product List | Glossary On
Versions: 1 2 3 4 5 6 7 8 9 10 11 12 13 14 15 16 17 18 19 20 21
000
FTUS43 KLBF 092300
TAFVTN
TAF
KVTN 092337Z 1000/1024 08012KT P6SM SCT060 BKN200
     FM101100 11004KT 5SM BR SCT100
     FM101400 18014KT P6SM SCT150=

USA.gov is the U.S. government's official web portal to all federal, state and local government web resources and services.